Cortez, CO

10:46 PM MDT on September 04, 2015 (GMT -0600)
Cortez Municipal | | Change Station
CLOSE
Current Station
Airport
Location: Cortez,
Elevation: 5915 ft
Nearby Weather Stations

Elev 5915 ft 37.31 °N, 108.63 °W | Updated 53 minutes ago

Mostly Cloudy
Mostly Cloudy
66 °F
Feels Like 66 °F
N
0
Wind Variable Wind from North

Today
High -- | Low -- °F
--% Chance of Precip.
Yesterday
High -- | Low -- °F
Precip. -- in
6:47 AM 7:39 PM
Waning Gibbous, 52% visible
Pressure 29.88 in
Visibility 10.0 miles
Clouds Scattered Clouds 3400 ft
Mostly Cloudy 11000 ft
Dew Point 53 °F
Humidity 63%
Rainfall 0.01 in
Snow Depth Not available.
UV 0 out of 12
Pollen 6.70 out of 12
Air Quality Not available.
Flu Activity Not available.
METAR KCEZ 050353Z AUTO 00000KT 10SM SCT034 BKN110 19/12 A3010 RMK AO2 SLP116 T01890117
Pressure 29.88 in
Visibility 10.0 miles
Clouds Scattered Clouds 3400 ft
Mostly Cloudy 11000 ft
Dew Point 53 °F
Humidity 63%
Rainfall 0.01 in
Snow Depth Not available.
UV 0 out of 12
Pollen 6.70 out of 12
Air Quality Not available.
Flu Activity Not available.
METAR KCEZ 050353Z AUTO 00000KT 10SM SCT034 BKN110 19/12 A3010 RMK AO2 SLP116 T01890117

10-Day Weather Forecast

×

Almanac

Astronomy

Sep. 04, 2015 Rise Set
Actual Time
Civil Twilight
Nautical Twilight
Astronomical Twilight
Moon
Length of Visible Light
Length of Day
Tomorrow will be .
, % of the Moon is Illuminated

Today's Extremes

State Highs State Lows

Community

WunderPhotos

Upload Photos

1,852,426 photos uploaded!

WunderBlogs® & News

Nearby

Air Quality

  Air Quality AQ Index Pollutant
Not available.

Snow Depth

Station Depth Elevation

Earthquake Activity

City Distance Mag. Time & Date
Minimum magnitude displayed is 2.5.

Coastal Water Temperatures

Place Temperature

Stations

Nearby Weather Stations

Station Location Temp. Windchill Dew Point Humidity Wind Precip. Elev Updated Type